Date,TemperatureHighF,TemperatureAvgF,TemperatureLowF,DewpointHighF,DewpointAvgF,DewpointLowF,HumidityHigh,HumidityAvg,HumidityLow,PressureMaxIn,PressureMinIn,WindSpeedMaxMPH,WindSpeedAvgMPH,GustSpeedMaxMPH,PrecipitationSumIn
2012-1-1,66,51,34,48,31,22,76,48,33,29.83,29.53,16,4,16,0.00
2012-1-2,50,40,30,25,17,9,41,39,37,29.71,29.59,23,8,23,0.00
2012-1-3,34,28,19,12,8,0,43,42,40,29.97,29.68,25,9,25,0.00
2012-1-4,43,30,16,19,9,-2,44,41,38,30.03,29.74,11,3,11,0.00
2012-1-5,53,42,35,26,19,13,40,39,36,29.77,29.68,16,4,16,0.00
2012-1-6,66,51,39,36,25,16,40,37,33,29.74,29.62,14,4,14,0.00
2012-1-7,69,54,43,38,28,19,39,36,33,29.74,29.59,15,3,15,0.00
2012-1-8,58,51,42,30,26,19,45,38,35,29.97,29.74,10,1,10,0.00
2012-1-9,46,42,39,36,29,20,82,60,42,29.97,29.74,9,1,9,0.04
2012-1-10,57,46,38,41,33,17,95,66,35,29.80,29.68,15,4,15,0.00
2012-1-11,59,47,36,58,34,16,98,63,38,29.74,29.18,12,2,12,0.67
2012-1-12,60,52,45,56,36,29,98,56,35,29.32,29.21,15,5,15,0.00
2012-1-13,55,39,31,32,17,10,47,40,36,29.71,29.18,26,8,26,0.00
2012-1-14,43,34,26,19,12,6,42,40,38,29.85,29.68,17,4,17,0.00
2012-1-15,39,32,25,17,12,5,50,42,39,30.24,29.80,14,3,14,0.00
2012-1-16,47,35,20,22,14,2,52,41,37,30.27,29.97,13,3,13,0.00
2012-1-17,63,55,45,38,30,21,46,38,34,29.97,29.50,28,8,28,0.00
2012-1-18,59,46,32,43,24,12,59,41,36,29.83,29.50,24,6,24,0.00
2012-1-19,46,35,22,22,14,3,44,40,37,29.91,29.71,12,3,12,0.00
2012-1-20,48,42,38,34,22,16,84,44,37,29.88,29.71,11,4,11,0.08
2012-1-21,47,42,33,46,38,16,97,86,50,29.91,29.56,16,4,16,0.28
2012-1-22,35,33,31,32,26,16,90,76,51,30.09,29.91,13,4,13,0.04
2012-1-23,52,41,34,51,40,32,98,96,90,30.00,29.68,11,2,11,0.28
2012-1-24,62,53,45,52,38,21,98,64,34,29.88,29.71,11,3,11,0.28
2012-1-25,58,46,34,32,24,16,63,42,35,30.03,29.88,15,2,15,0.00
2012-1-26,67,55,43,56,41,32,87,63,33,29.88,29.47,14,3,14,0.00
2012-1-27,68,60,44,55,39,20,79,46,33,29.71,29.29,28,8,28,0.28
2012-1-28,59,46,32,32,24,16,71,42,35,29.91,29.71,17,4,17,0.00
2012-1-29,51,41,30,25,18,9,41,39,37,30.03,29.88,14,3,14,0.00
2012-1-30,56,44,33,29,20,12,41,38,35,30.09,29.88,15,3,15,0.00
2012-1-31,66,53,41,36,26,18,39,36,33,30.00,29.88,15,5,15,0.00
2012-2-1,69,59,51,48,33,26,75,39,33,29.91,29.77,17,5,17,0.04
2012-2-2,66,56,44,54,39,20,96,57,33,30.00,29.65,20,4,20,0.16
2012-2-3,55,44,33,28,20,13,49,39,36,30.18,30.00,12,2,12,0.00
2012-2-4,56,45,39,41,28,17,87,54,35,30.06,29.77,13,3,13,0.35
2012-2-5,42,39,30,39,31,18,93,74,44,29.94,29.71,12,3,12,0.16
2012-2-6,49,37,26,32,22,19,83,57,37,29.97,29.83,10,1,10,0.00
2012-2-7,58,47,34,30,24,17,51,40,35,29.85,29.80,8,1,8,0.00
2012-2-8,45,37,28,32,24,18,79,61,47,29.91,29.80,8,1,8,0.00
2012-2-9,49,39,32,24,18,14,60,43,37,29.97,29.83,11,3,11,0.00
2012-2-10,51,42,30,25,20,14,56,42,37,29.88,29.59,12,3,12,0.00
2012-2-11,48,39,24,27,18,4,59,44,37,29.65,29.38,29,8,29,0.00
2012-2-12,39,29,20,16,8,1,43,41,39,29.85,29.65,26,8,26,0.00
2012-2-13,49,36,25,24,14,5,42,40,37,29.94,29.80,12,2,12,0.00
2012-2-14,57,47,40,29,23,17,39,37,35,29.80,29.68,17,4,17,0.00
2012-2-15,62,50,39,34,26,20,59,40,34,29.97,29.74,11,2,11,0.00
2012-2-16,52,46,43,44,30,19,92,54,36,29.97,29.71,11,2,11,0.20
2012-2-17,62,50,43,51,35,19,98,62,34,29.80,29.71,15,3,15,0.00
2012-2-18,62,50,39,42,28,17,83,43,34,29.83,29.65,13,2,13,0.00
2012-2-19,52,40,34,32,25,17,94,59,36,29.71,29.47,17,4,17,0.16
2012-2-20,45,36,30,33,23,13,98,63,38,30.03,29.59,13,2,13,0.39
2012-2-21,57,42,26,31,23,13,73,48,36,30.03,29.65,20,4,20,0.00
2012-2-22,67,56,45,37,32,28,64,41,33,29.65,29.26,19,5,19,0.00
2012-2-23,71,58,47,48,39,31,90,53,32,29.38,29.29,20,4,20,0.12
2012-2-24,79,66,47,54,40,22,70,38,30,29.50,29.12,35,9,35,0.12
2012-2-25,50,43,34,24,19,12,40,38,37,30.00,29.50,33,11,33,0.00
2012-2-26,52,38,24,26,16,5,43,39,36,30.18,29.97,10,2,10,0.00
2012-2-27,50,43,33,47,28,12,93,56,37,30.12,30.00,15,4,15,0.00
2012-2-28,64,51,39,47,34,22,97,57,34,30.12,30.00,9,2,9,0.00
2012-2-29,66,54,42,59,40,22,96,60,40,30.00,29.47,16,4,16,0.28
2012-3-1,77,67,54,55,43,28,74,44,31,29.62,29.41,29,6,29,0.00
2012-3-2,57,51,43,54,37,25,92,63,36,29.74,29.38,13,3,13,0.08
2012-3-3,62,56,49,61,40,24,98,60,35,29.44,29.29,17,4,17,0.31
2012-3-4,54,46,36,28,22,14,41,38,36,29.71,29.35,21,5,21,0.00
2012-3-5,49,39,31,24,16,10,51,40,37,30.15,29.59,23,6,23,0.00
2012-3-6,54,39,26,28,17,7,44,39,36,30.36,30.15,11,2,11,0.00
2012-3-7,68,53,35,38,27,16,49,38,33,30.30,30.12,17,4,17,0.00
2012-3-8,73,62,50,46,38,33,80,44,32,30.12,29.80,20,5,20,0.00
2012-3-9,62,55,40,55,36,18,87,51,35,30.00,29.74,15,4,15,0.24
2012-3-10,54,43,34,28,20,13,50,39,36,30.21,29.97,15,2,15,0.00
2012-3-11,65,46,29,35,23,13,58,39,33,30.27,30.12,10,2,10,0.00
2012-3-12,72,58,43,40,32,21,55,37,32,30.12,29.91,17,5,17,0.00
2012-3-13,79,66,56,50,42,33,75,44,31,29.91,29.77,14,4,14,0.04
2012-3-14,84,69,57,55,44,36,81,43,29,29.91,29.83,11,2,11,0.00
2012-3-15,83,68,57,48,40,36,56,37,29,29.97,29.85,16,5,16,0.00
2012-3-16,76,66,58,45,40,36,50,39,31,29.91,29.83,8,8,8,0.00
2012-3-17,78,66,57,55,43,36,82,46,31,29.97,29.85,8,7,8,0.00
2012-3-18,73,62,55,52,44,39,88,57,32,30.03,29.91,8,2,8,0.00
2012-3-19,79,65,55,59,47,38,90,56,30,29.94,29.83,10,1,10,0.00
2012-3-20,84,68,58,63,50,40,87,59,29,29.94,29.83,9,1,9,0.43
2012-3-21,80,67,60,65,52,40,97,65,30,30.00,29.85,10,1,10,0.00
2012-3-22,81,69,60,65,48,40,94,51,30,29.97,29.83,11,2,11,0.00
2012-3-23,86,72,62,63,48,40,90,47,29,29.85,29.65,12,3,12,0.00
2012-3-24,70,66,57,63,52,40,91,63,34,29.68,29.50,12,2,12,0.75
2012-3-25,63,59,56,60,52,42,98,81,49,29.53,29.44,13,3,13,0.43
2012-3-26,74,63,51,53,40,25,84,45,31,29.85,29.50,17,6,17,0.00
2012-3-27,62,48,36,33,23,14,40,37,34,30.03,29.85,14,3,14,0.08
2012-3-28,80,62,44,46,34,20,49,35,30,29.94,29.50,19,6,19,0.00
2012-3-29,80,70,59,46,40,31,46,34,30,29.71,29.50,18,5,18,0.00
2012-3-30,73,59,44,41,34,26,73,40,32,29.80,29.56,9,2,9,0.00
2012-3-31,78,65,55,56,47,40,82,54,31,29.56,29.38,15,4,15,0.43
2012-4-1,69,58,48,45,37,30,75,48,33,29.62,29.38,10,3,10,0.08
2012-4-2,68,61,47,38,34,23,40,35,33,29.68,29.29,16,5,16,0.00
2012-4-3,77,59,39,44,34,22,69,40,31,29.74,29.53,12,2,12,0.00
2012-4-4,87,70,59,51,42,35,52,37,29,29.53,29.32,15,3,15,0.00
2012-4-5,68,57,49,45,30,24,48,36,33,29.59,29.38,14,3,14,0.08
2012-4-6,61,51,41,33,27,18,44,38,34,29.77,29.56,20,5,20,0.00
2012-4-7,68,52,37,38,26,15,40,36,33,29.94,29.77,16,3,16,0.00
2012-4-8,76,58,36,43,30,16,45,36,31,29.83,29.59,19,4,19,0.00
2012-4-9,74,62,46,42,33,22,38,34,31,29.74,29.50,22,5,22,0.00
2012-4-10,74,60,44,42,32,22,44,35,31,29.62,29.41,26,5,26,0.00
2012-4-11,55,47,37,29,23,15,40,37,36,29.80,29.53,16,5,16,0.00
2012-4-12,64,49,35,35,24,14,44,37,33,29.88,29.77,14,4,14,0.00
2012-4-13,70,52,37,39,28,18,57,40,32,29.97,29.85,11,2,11,0.00
2012-4-14,77,61,41,44,33,20,46,35,31,30.00,29.85,17,3,17,0.00
2012-4-15,82,70,61,47,42,34,52,36,30,29.88,29.80,17,5,17,0.00
2012-4-16,87,74,64,51,44,39,51,36,29,29.85,29.74,19,5,19,0.00
2012-4-17,84,72,62,49,43,35,57,35,29,29.88,29.74,13,3,13,0.00
2012-4-18,65,59,53,46,34,29,75,39,33,29.91,29.80,13,3,13,0.00
2012-4-19,68,58,52,48,41,33,84,56,33,29.83,29.74,10,2,10,0.00
2012-4-20,75,65,58,51,42,37,72,45,32,29.74,29.56,9,1,9,0.00
2012-4-21,82,68,57,56,46,39,84,47,30,29.59,29.38,20,3,20,0.08
2012-4-22,63,54,48,58,47,39,89,79,53,29.50,29.18,20,6,20,0.83
2012-4-23,50,46,41,44,34,24,87,63,38,29.35,29.15,18,5,18,0.12
2012-4-24,65,51,39,35,29,19,77,46,33,29.50,29.35,20,4,20,0.00
2012-4-25,70,56,40,39,30,20,54,37,32,29.65,29.50,16,3,16,0.00
2012-4-26,70,63,56,62,48,32,95,61,35,29.62,29.41,17,4,17,0.51
2012-4-27,71,64,49,55,41,28,75,46,32,29.83,29.50,13,3,13,0.00
2012-4-28,58,52,49,37,30,25,60,44,35,29.94,29.83,13,3,13,0.00
2012-4-29,72,59,48,45,38,32,81,49,32,29.94,29.77,11,2,11,0.00
2012-4-30,78,66,59,50,44,37,72,47,31,29.97,29.83,9,2,9,0.00
2012-5-1,86,73,66,57,50,43,72,47,29,29.83,29.74,15,3,15,0.00
2012-5-2,91,77,66,58,52,47,73,43,28,29.83,29.74,13,3,13,0.00
2012-5-3,89,74,65,62,54,47,89,53,28,29.88,29.74,9,1,9,0.00
2012-5-4,88,76,67,66,53,43,88,49,28,29.77,29.62,16,3,16,0.00
2012-5-5,81,72,63,64,54,45,89,56,30,29.62,29.53,11,2,11,0.00
2012-5-6,75,68,63,60,51,42,83,56,33,29.80,29.62,14,4,14,0.00
2012-5-7,80,66,56,56,44,35,89,48,30,29.83,29.71,10,2,10,0.00
2012-5-8,78,68,57,55,44,36,83,43,31,29.77,29.56,14,3,14,0.00
2012-5-9,77,68,62,60,51,39,91,59,32,29.59,29.38,17,3,17,0.12
2012-5-10,73,63,52,59,42,31,91,51,32,29.68,29.41,21,4,21,0.00
2012-5-11,75,61,46,42,35,28,58,38,31,29.94,29.68,15,2,15,0.00
2012-5-12,79,64,45,46,36,26,55,36,30,30.06,29.94,13,2,13,0.00
2012-5-13,76,68,60,56,42,34,78,41,31,29.97,29.85,10,2,10,0.04
2012-5-14,77,68,62,63,54,42,91,64,31,29.88,29.71,13,2,13,0.12
2012-5-15,85,73,66,64,54,44,87,56,29,29.74,29.62,11,2,11,0.04
2012-5-16,83,71,64,66,54,44,90,59,30,29.71,29.59,10,2,10,0.55
2012-5-17,78,72,61,64,48,42,91,47,31,29.80,29.65,15,4,15,0.00
2012-5-18,76,66,57,55,43,33,86,48,31,29.83,29.77,17,3,17,0.00
2012-5-19,79,64,49,46,39,31,75,42,30,29.85,29.80,20,3,20,0.00
2012-5-20,79,66,51,59,44,32,78,48,30,29.83,29.74,20,4,20,0.12
2012-5-21,81,71,66,64,53,44,89,58,30,29.74,29.59,9,2,9,0.00
2012-5-22,86,73,63,65,53,43,89,54,29,29.62,29.50,13,2,13,0.16
2012-5-23,81,71,64,63,49,40,90,50,30,29.71,29.56,11,1,11,0.04
2012-5-24,85,71,61,69,54,44,86,60,29,29.80,29.68,22,6,22,0.28
2012-5-25,87,76,64,71,56,47,92,56,29,29.85,29.77,13,13,13,0.00
2012-5-26,89,76,65,67,54,46,92,53,28,29.88,29.80,13,13,13,0.00
2012-5-27,90,76,63,68,54,47,92,52,28,29.88,29.80,13,13,13,0.00
2012-5-28,90,79,71,70,55,45,92,49,28,29.83,29.68,13,11,13,0.00
2012-5-29,89,78,71,67,55,47,86,49,28,29.74,29.53,15,3,15,0.00
2012-5-30,81,72,65,67,56,43,89,60,30,29.59,29.44,16,2,16,0.24
2012-5-31,90,76,64,60,49,43,76,41,28,29.62,29.50,18,2,18,0.55
2012-6-1,83,72,65,66,57,46,90,61,31,29.62,29.41,13,3,13,0.75
2012-6-2,76,66,57,60,44,34,87,47,31,29.62,29.50,15,4,15,0.00
2012-6-3,78,67,53,46,40,33,51,38,31,29.65,29.50,16,3,16,0.00
2012-6-4,84,72,62,48,44,38,52,37,29,29.53,29.35,17,4,17,0.00
2012-6-5,72,64,55,47,40,35,68,43,32,29.68,29.47,13,2,13,0.00
2012-6-6,75,63,56,51,43,36,76,50,31,29.74,29.65,10,2,10,0.00
2012-6-7,81,67,53,55,44,38,83,47,30,29.77,29.71,9,1,9,0.00
2012-6-8,86,72,56,51,44,37,74,39,29,29.77,29.68,11,2,11,0.00
2012-6-9,89,76,62,52,44,36,41,32,28,29.80,29.68,11,2,11,0.00
2012-6-10,91,78,67,53,46,40,41,32,28,29.85,29.77,13,2,13,0.00
2012-6-11,77,72,68,68,52,41,78,49,33,29.88,29.77,12,2,12,0.12
2012-6-12,85,75,70,64,57,49,78,56,31,29.77,29.56,12,3,12,0.04
2012-6-13,84,74,61,67,51,34,90,50,29,29.74,29.59,14,4,14,0.00
2012-6-14,77,68,57,48,42,33,57,39,32,29.88,29.74,13,3,13,0.00
2012-6-15,82,68,58,58,46,34,86,48,30,29.97,29.88,13,3,13,0.00
2012-6-16,82,67,52,50,43,35,80,44,30,30.00,29.88,17,2,17,0.00
2012-6-17,82,68,52,53,44,38,80,44,29,29.91,29.74,11,2,11,0.00
2012-6-18,85,71,60,51,46,42,69,43,29,29.83,29.77,10,2,10,0.00
2012-6-19,92,78,68,62,53,46,70,44,27,29.88,29.80,10,2,10,0.00
2012-6-20,98,83,70,68,56,49,79,44,26,29.85,29.77,10,1,10,0.00
2012-6-21,99,84,74,63,54,48,67,37,26,29.77,29.59,15,2,15,0.00
2012-6-22,98,83,74,62,53,48,68,37,26,29.62,29.50,20,3,20,0.00
2012-6-23,93,80,70,66,55,43,81,46,27,29.74,29.59,14,2,14,0.00
2012-6-24,93,80,66,66,53,45,83,43,27,29.77,29.65,10,2,10,0.00
2012-6-25,96,80,71,63,52,40,73,39,27,29.65,29.41,17,4,17,0.00
2012-6-26,82,71,61,48,40,32,35,32,30,29.65,29.53,17,4,17,0.00
2012-6-27,90,72,55,52,42,33,50,35,28,29.71,29.62,17,4,17,0.00
2012-6-28,98,81,62,58,47,35,38,30,26,29.71,29.56,15,3,15,0.00
2012-6-29,108,91,76,64,53,43,32,28,24,29.62,29.44,35,4,35,0.00
2012-6-30,105,88,71,62,52,43,44,30,25,29.62,29.50,12,2,12,0.00
2012-7-1,102,85,72,69,54,44,78,38,25,29.68,29.53,28,3,28,0.12
2012-7-2,97,84,74,57,50,44,49,32,26,29.71,29.62,16,3,16,0.00
2012-7-3,100,83,70,66,55,46,79,41,26,29.74,29.62,21,2,21,0.12
2012-7-4,100,84,72,59,52,45,52,34,26,29.71,29.59,13,2,13,0.00
2012-7-5,103,86,76,60,52,46,44,31,25,29.65,29.56,15,3,15,0.12
2012-7-6,102,86,73,59,53,48,51,33,25,29.68,29.59,11,2,11,0.12
2012-7-7,105,90,75,62,55,50,49,32,25,29.71,29.59,14,2,14,0.00
2012-7-8,107,91,77,63,54,48,56,30,24,29.65,29.53,17,4,17,0.20
2012-7-9,94,80,72,71,62,49,89,59,27,29.68,29.56,14,2,14,1.34
2012-7-10,88,77,70,75,63,48,92,69,28,29.77,29.65,15,3,15,2.13
2012-7-11,83,74,71,72,64,46,93,75,31,29.85,29.74,10,1,10,1.30
2012-7-12,86,75,68,65,53,42,81,51,29,29.91,29.83,11,2,11,1.30
2012-7-13,87,77,68,62,52,47,74,44,29,29.94,29.85,8,1,8,0.00
2012-7-14,92,80,73,72,60,49,89,55,28,29.94,29.83,13,2,13,0.59
2012-7-15,93,82,74,74,59,48,90,51,28,29.91,29.77,11,2,11,0.59
2012-7-16,96,84,76,62,54,49,61,37,27,29.80,29.62,11,2,11,0.00
2012-7-17,98,85,73,58,54,50,56,35,26,29.68,29.59,9,2,9,0.00
2012-7-18,97,84,73,66,55,46,79,39,26,30.09,29.59,18,3,18,0.08
2012-7-19,97,83,73,67,56,48,80,44,26,30.06,29.97,15,3,15,0.00
2012-7-20,93,81,74,70,57,50,85,47,28,30.03,29.94,13,3,13,0.28
2012-7-21,86,77,72,74,63,50,92,65,30,30.17,30.00,13,2,13,0.04
2012-7-22,86,77,70,70,59,49,92,60,30,30.26,30.14,10,2,10,0.00
2012-7-23,93,79,73,74,64,50,88,63,28,30.23,30.06,16,2,16,1.06
2012-7-24,95,82,73,71,58,48,87,48,27,30.06,29.85,26,4,26,0.00
2012-7-25,91,79,72,54,50,45,51,36,28,30.06,29.91,13,3,13,0.00
2012-7-26,98,86,75,58,54,50,54,35,26,29.97,29.82,14,3,14,0.00
2012-7-27,98,82,74,71,58,47,88,48,26,30.03,29.88,26,2,26,0.39
2012-7-28,94,81,70,73,59,46,92,54,27,30.06,29.94,14,3,14,0.00
2012-7-29,90,79,68,65,54,46,83,45,28,30.09,30.00,9,2,9,0.00
2012-7-30,92,78,70,67,55,46,81,48,27,30.11,30.03,11,2,11,0.00
2012-7-31,90,76,67,71,57,47,90,56,28,30.09,29.97,9,1,9,0.00
2012-8-1,93,78,68,66,54,46,81,47,27,30.00,29.91,13,2,13,0.00
2012-8-2,92,79,70,67,52,45,77,41,27,30.06,29.94,15,2,15,0.00
2012-8-3,92,80,70,60,52,47,70,40,27,30.14,30.03,11,2,11,0.00
2012-8-4,92,82,72,72,55,48,87,42,27,30.26,30.14,13,3,13,0.00
2012-8-5,91,82,74,69,55,48,80,43,28,30.29,30.14,13,3,13,0.16
2012-8-6,88,78,74,71,61,51,87,60,29,30.17,30.09,11,2,11,0.47
2012-8-7,89,78,73,73,62,50,93,64,29,30.11,30.03,10,1,10,0.24
2012-8-8,88,76,69,74,62,47,93,66,29,30.09,30.00,10,1,10,0.00
2012-8-9,90,78,68,71,58,49,91,55,28,30.09,29.94,9,2,9,0.04
2012-8-10,85,78,73,69,57,47,85,52,30,29.97,29.88,16,3,16,0.00
2012-8-11,80,75,71,70,62,45,86,67,33,30.03,29.91,13,1,13,0.20
2012-8-12,88,77,71,72,59,48,92,59,28,30.09,30.00,8,1,8,0.00
2012-8-13,91,78,66,68,55,44,89,50,28,30.11,30.03,8,0,8,0.00
2012-8-14,90,79,68,71,54,46,91,47,28,30.03,29.94,11,1,11,0.00
2012-8-15,88,79,72,58,51,46,61,39,29,30.03,29.94,11,2,11,0.00
2012-8-16,90,77,66,62,52,43,82,46,28,30.11,30.00,10,1,10,0.00
2012-8-17,91,79,68,56,50,44,63,37,28,30.06,29.88,13,1,13,0.00
2012-8-18,85,75,70,58,49,43,64,41,29,30.00,29.91,11,2,11,0.00
2012-8-19,72,69,67,65,57,46,88,66,44,30.03,29.94,11,2,11,0.35
2012-8-20,80,72,67,65,55,45,85,60,31,30.06,29.94,7,1,7,0.08
2012-8-21,87,74,67,68,54,45,90,56,29,30.14,30.06,8,1,8,0.00
2012-8-22,84,73,66,69,54,46,92,56,30,30.20,30.11,11,2,11,0.00
2012-8-23,85,76,68,66,52,43,84,47,29,30.23,30.14,10,2,10,0.00
2012-8-24,79,71,65,63,51,42,83,52,30,30.23,30.17,8,1,8,0.00
2012-8-25,69,68,65,66,60,48,93,79,47,30.20,30.11,20,4,20,1.69
2012-8-26,84,73,67,66,55,44,92,60,29,30.26,30.17,8,1,8,0.00
2012-8-27,90,78,67,67,57,48,86,53,28,30.23,30.09,8,1,8,0.00
2012-8-28,93,79,73,72,61,49,90,59,27,30.09,29.97,14,3,14,0.67
2012-8-29,90,77,70,69,57,44,92,56,28,30.09,30.00,9,1,9,0.00
2012-8-30,89,78,66,71,55,48,91,51,28,30.20,30.09,11,2,11,0.00
2012-8-31,92,81,72,73,59,52,90,52,28,30.26,30.11,8,2,8,0.00
2012-9-1,88,79,74,69,59,50,82,52,29,30.20,30.09,12,1,12,0.04
2012-9-2,92,78,73,72,63,48,91,65,28,30.11,30.03,18,2,18,0.08
2012-9-3,89,77,71,74,63,51,93,68,29,30.14,30.06,10,1,10,0.39
2012-9-4,88,78,71,73,60,49,93,60,28,30.11,30.00,13,2,13,0.00
2012-9-5,87,79,73,67,56,49,79,48,29,30.00,29.91,15,3,15,0.00
2012-9-6,84,76,72,70,60,51,83,58,33,30.03,29.94,13,2,13,0.31
2012-9-7,88,76,68,71,59,47,93,62,29,30.06,29.94,8,1,8,0.00
2012-9-8,88,75,67,70,60,44,91,66,29,29.94,29.73,28,2,28,0.16
2012-9-9,79,69,61,64,50,38,91,56,30,30.06,29.91,13,3,13,0.00
2012-9-10,77,65,55,49,42,35,78,46,31,30.23,30.06,13,3,13,0.00
2012-9-11,78,64,51,52,42,35,83,49,31,30.38,30.23,11,1,11,0.00
2012-9-12,79,64,51,59,44,36,86,53,30,30.44,30.35,8,1,8,0.00
2012-9-13,80,66,51,61,46,39,87,53,30,30.44,30.32,11,1,11,0.00
2012-9-14,83,71,62,66,52,43,90,56,29,30.35,30.20,8,1,8,0.00
2012-9-15,76,68,58,61,48,38,87,53,31,30.26,30.17,15,2,15,0.00
2012-9-16,66,62,58,52,46,38,77,57,36,30.26,30.17,6,0,6,0.00
2012-9-17,78,69,62,66,52,43,86,57,33,30.20,30.03,6,0,6,0.04
2012-9-18,78,72,67,74,64,53,92,78,44,30.03,29.79,17,4,17,1.77
2012-9-19,72,65,55,66,45,35,93,53,32,30.20,29.88,12,3,12,0.12
2012-9-20,76,62,50,56,44,37,89,56,31,30.23,30.14,9,1,9,0.00
2012-9-21,81,68,56,59,47,40,87,51,30,30.17,30.06,10,1,10,0.00
2012-9-22,85,72,63,64,49,43,83,48,29,30.06,29.91,26,3,26,0.31
2012-9-23,72,64,52,62,40,32,80,44,32,30.20,30.03,15,2,15,0.00
2012-9-24,72,55,46,46,38,31,82,56,32,30.29,30.20,10,2,10,0.00
2012-9-25,75,63,51,42,37,31,56,38,31,30.29,30.17,11,2,11,0.00
2012-9-26,83,69,57,50,42,36,56,39,29,30.26,30.20,12,2,12,0.00
2012-9-27,86,72,62,55,46,41,72,41,29,30.26,30.14,9,1,9,0.00
2012-9-28,84,70,64,61,51,42,79,53,30,30.17,30.06,17,2,17,0.16
2012-9-29,68,62,58,61,51,38,83,69,39,30.11,30.00,9,1,9,0.63
2012-9-30,72,63,55,58,46,36,90,59,32,30.03,29.94,9,1,9,0.00
2012-10-1,67,62,59,58,52,42,82,71,42,30.03,29.94,8,1,8,0.00
2012-10-2,86,74,64,74,62,51,94,69,32,30.03,29.91,10,2,10,0.04
2012-10-3,85,78,73,73,61,48,88,60,30,30.20,30.03,10,1,10,0.00
2012-10-4,79,72,66,69,49,44,81,46,31,30.26,30.17,11,2,11,0.00
2012-10-5,80,68,56,56,46,38,81,48,30,30.23,30.09,8,1,8,0.00
2012-10-6,81,69,60,53,44,36,73,42,30,30.09,29.97,12,2,12,0.00
2012-10-7,64,53,50,50,40,32,86,63,35,30.20,30.06,13,4,13,0.67
2012-10-8,50,48,47,46,40,24,87,74,40,30.32,30.20,11,4,11,0.31
2012-10-9,59,54,47,49,42,34,94,66,41,30.20,30.11,12,4,12,0.04
2012-10-10,71,61,56,51,41,30,81,52,32,30.14,30.00,17,3,17,0.04
2012-10-11,65,54,42,37,32,25,70,44,33,30.35,30.14,10,2,10,0.04
2012-10-12,70,57,48,39,34,25,64,42,32,30.44,30.20,13,3,13,0.04
2012-10-13,64,51,39,36,29,21,71,44,34,30.53,30.38,10,1,10,0.04
2012-10-14,74,61,47,50,39,33,81,47,31,30.38,30.09,15,2,15,0.00
2012-10-15,68,64,54,64,49,32,86,59,36,30.09,29.79,11,3,11,0.16
2012-10-16,67,55,45,38,33,27,65,45,33,30.03,29.91,11,2,11,0.00
2012-10-17,70,56,45,53,37,29,86,53,32,30.06,29.97,10,1,10,0.04
2012-10-18,74,62,46,52,40,30,84,48,32,30.03,29.88,10,2,10,0.04
2012-10-19,77,68,57,65,49,30,90,55,31,29.88,29.70,10,2,10,0.00
2012-10-20,69,58,49,39,31,25,40,35,33,30.03,29.82,11,2,11,0.00
2012-10-21,66,53,41,36,29,21,55,39,33,30.20,30.03,10,1,10,0.00
2012-10-22,71,54,40,46,34,29,83,50,32,30.26,30.17,8,0,8,0.00
2012-10-23,79,62,48,46,37,31,68,41,30,30.23,30.14,13,1,13,0.00
2012-10-24,80,66,57,46,38,32,44,36,30,30.23,30.14,10,2,10,0.00
2012-10-25,80,66,53,58,42,36,81,44,30,30.23,30.17,8,1,8,0.00
2012-10-26,70,65,62,60,50,41,88,59,35,30.20,30.03,11,4,11,0.00
2012-10-27,66,63,61,60,45,34,87,53,35,30.06,29.82,17,5,17,0.00
2012-10-28,61,58,54,46,34,30,75,40,34,29.82,29.64,23,9,23,0.00
2012-10-29,54,47,41,48,39,29,85,74,61,29.64,29.23,23,10,23,0.47
2012-10-30,48,43,39,32,24,19,72,48,37,29.61,29.23,26,6,26,0.12
2012-10-31,55,47,40,28,22,18,43,38,36,29.79,29.58,17,5,17,0.00
2012-11-1,56,48,41,29,23,18,40,38,35,29.88,29.76,17,5,17,0.00
2012-11-2,58,46,38,31,22,16,46,39,35,30.00,29.85,16,3,16,0.00
2012-11-3,56,43,33,29,21,14,51,41,35,30.14,30.00,17,3,17,0.00
2012-11-4,53,44,36,29,25,21,67,48,36,30.14,30.03,9,1,9,0.00
2012-11-5,52,41,32,33,21,15,78,44,37,30.17,30.09,13,2,13,0.00
2012-11-6,45,37,28,27,19,14,74,49,38,30.20,29.97,13,3,13,0.00
2012-11-7,46,40,36,25,20,17,63,45,38,30.00,29.91,14,4,14,0.00
2012-11-8,60,45,34,32,22,16,52,40,35,30.14,29.97,15,3,15,0.00
2012-11-9,62,47,33,34,22,12,42,38,34,30.29,30.14,11,1,11,0.00
2012-11-10,72,55,38,40,29,19,55,37,32,30.41,30.26,10,2,10,0.00
2012-11-11,73,58,42,41,31,20,52,37,32,30.50,30.38,10,2,10,0.00
2012-11-12,73,63,53,49,42,36,80,48,32,30.47,30.23,11,2,11,0.00
2012-11-13,65,49,34,53,38,28,78,66,53,30.47,30.20,17,3,17,0.12
2012-11-14,50,36,31,28,18,13,78,49,37,30.53,30.44,13,3,13,0.00
2012-11-15,49,42,34,36,23,15,73,48,37,30.44,30.26,11,3,11,0.04
2012-11-16,53,43,34,35,25,17,77,51,36,30.44,30.29,14,2,14,0.00
2012-11-17,56,43,32,29,22,16,60,44,35,30.56,30.44,15,4,15,0.00
2012-11-18,56,49,42,31,27,22,61,42,36,30.53,30.41,16,6,16,0.00
2012-11-19,57,50,43,30,26,23,46,39,36,30.41,30.23,17,6,17,0.00
2012-11-20,59,48,40,32,27,23,64,44,35,30.23,30.11,9,2,9,0.00
2012-11-21,57,44,36,42,27,15,86,54,35,30.23,30.14,15,2,15,0.00
2012-11-22,59,43,32,32,21,14,57,41,35,30.29,30.20,13,2,13,0.00
2012-11-23,66,49,30,36,25,12,52,40,33,30.20,29.91,12,3,12,0.00
2012-11-24,51,41,29,26,18,8,41,39,37,30.14,29.91,17,6,17,0.00
2012-11-25,50,37,25,25,15,5,42,39,37,30.17,30.03,14,3,14,0.00
2012-11-26,63,48,34,34,23,13,40,37,34,30.23,30.09,10,2,10,0.00
2012-11-27,50,44,37,37,26,17,80,51,37,30.29,30.17,11,2,11,0.20
2012-11-28,50,39,32,34,22,12,81,54,37,30.41,30.26,11,2,11,0.00
2012-11-29,52,38,27,26,16,7,42,40,36,30.50,30.41,9,1,9,0.00
2012-11-30,61,42,37,33,19,16,42,39,35,30.41,30.32,13,2,13,0.00
2012-12-1,61,44,31,33,23,16,67,44,34,30.44,30.35,8,0,8,0.00
2012-12-2,66,51,34,43,31,25,82,49,33,30.41,30.26,13,2,13,0.00
2012-12-3,71,61,55,43,37,34,59,42,32,30.32,30.26,11,2,11,0.00
2012-12-4,73,62,54,43,38,33,63,43,32,30.32,30.17,15,3,15,0.00
2012-12-5,61,55,43,51,36,21,77,50,36,30.29,30.14,11,2,11,0.08
2012-12-6,49,40,32,24,18,14,49,40,37,30.38,30.26,10,2,10,0.00
2012-12-7,51,46,39,44,30,19,80,54,38,30.26,30.06,7,0,7,0.04
2012-12-8,59,53,50,54,45,35,95,76,42,30.09,30.00,11,2,11,0.04
2012-12-9,64,58,52,58,48,41,91,72,44,30.17,30.06,8,1,8,0.00
2012-12-10,69,65,62,65,49,37,95,62,33,30.06,29.73,18,4,18,0.00
2012-12-11,64,55,47,43,29,23,48,37,35,30.23,29.73,15,4,15,0.00
2012-12-12,47,44,42,23,20,18,39,38,37,30.41,30.20,14,5,14,0.00
2012-12-13,51,41,31,26,18,12,46,39,37,30.44,30.35,13,4,13,0.00
2012-12-14,55,38,26,30,18,12,76,46,36,30.38,30.26,8,1,8,0.00
2012-12-15,54,42,31,29,21,13,66,44,36,30.29,30.14,8,0,8,0.00
2012-12-16,57,51,46,54,40,22,92,66,38,30.14,29.94,12,2,12,0.16
2012-12-17,59,57,54,56,48,37,94,74,44,29.94,29.67,13,2,13,0.12
2012-12-18,61,54,42,52,35,19,88,51,34,29.94,29.67,23,5,23,0.00
2012-12-19,62,48,40,34,23,17,39,37,34,30.20,29.91,15,3,15,0.00
2012-12-20,61,47,34,56,28,17,89,50,36,30.23,29.47,22,3,22,0.35
2012-12-21,61,44,35,58,21,14,88,41,37,29.79,29.47,30,10,30,0.04
2012-12-22,48,40,34,23,17,12,40,39,37,30.11,29.79,26,8,26,0.00
2012-12-23,57,44,30,29,20,10,41,38,35,30.14,30.03,17,4,17,0.00
2012-12-24,49,46,41,31,25,19,59,44,38,30.09,29.94,13,1,13,0.04
2012-12-25,53,48,45,39,32,22,76,54,37,30.20,29.97,10,3,10,0.00
2012-12-26,46,42,38,44,34,20,94,78,39,30.17,29.49,20,6,20,1.14
2012-12-27,48,40,31,36,20,10,90,45,37,30.11,29.61,20,6,20,0.00
2012-12-28,44,35,27,20,14,8,50,42,38,30.20,30.06,10,1,10,0.00
2012-12-29,48,41,36,39,23,16,86,52,37,30.06,29.67,21,4,21,0.20
2012-12-30,45,38,32,21,15,11,41,40,38,30.38,29.94,20,6,20,0.00
2012-12-31,50,39,27,25,16,6,42,39,37,30.38,30.11,13,1,13,0.00
2013-1-1,47,46,42,38,25,20,75,45,38,30.11,29.94,15,1,15,0.16